Hendrix, Mississippi
Current Conditions -  °F | °C
As of 11:53 PM on Sunday 25 Jan 2015 (Local Time) from KGWO Reporting Station
Overcast Overcast  
Wind Chill: 41°   Ceiling: 3700
Heat Index: 47°   Visibility: 10mi
Dew Point: 35°   Wind: 15mph
Humidity: 63%   Direction: 320°NW
Pressure: 29.97"   Gusts: 23mph
Location:  33.3807°N, 89.5554°W
Report Text: KGWO 260553Z AUTO 32013G20KT 10SM OVC037 08/02 A2997 RMK AO2 SLP149 T00830017 10122 20083 401500033 52023
Loading
Personal Weather Stations






























Interactive Weather Map New forecast layout! Learn more

10-Day Weather Forecast

Advertisements
Track Severe Weather on mobile